Terminal Aerodrome Forecast
Issued by NWS

Home | Current Version | Previous Version | Text Only | Print | Product List | Glossary Off
Versions: 1 2 3 4 5 6 7 8 9 10 11 12 13 14 15 16 17

028
FTUS43 KMPX 150535
TAFAXN
TAF
KAXN 150535Z 1506/1606 08003KT P6SM BKN250
      TEMPO 1508/1512 1 1/2SM BR BKN004
     FM151400 12006KT P6SM BKN250
     FM151700 13010KT P6SM SCT050 BKN150
     FM152200 10010KT P6SM OVC090
     FM160300 10012KT 5SM SHRA OVC040=

USA.gov is the U.S. government's official web portal to all federal, state and local government web resources and services.